createdAt,value
2019-01-08T00:01:29.933Z,100.00
2019-01-08T00:04:00.086Z,100.00
2019-01-08T00:06:30.341Z,100.00
2019-01-08T00:09:00.247Z,100.00
2019-01-08T00:11:30.694Z,100.00
2019-01-08T00:14:00.899Z,100.00
2019-01-08T00:16:31.126Z,100.00
2019-01-08T00:19:01.280Z,100.00
2019-01-08T00:21:31.280Z,100.00
2019-01-08T00:24:01.870Z,100.00
2019-01-08T00:26:31.844Z,100.00
2019-01-08T00:29:02.510Z,100.00
2019-01-08T00:31:32.442Z,100.00
2019-01-08T00:34:02.336Z,100.00
2019-01-08T00:36:32.242Z,100.00
2019-01-08T00:39:02.403Z,100.00
2019-01-08T00:41:32.550Z,100.00
2019-01-08T00:44:02.745Z,100.00
2019-01-08T00:46:32.878Z,100.00
2019-01-08T00:49:02.876Z,100.00
2019-01-08T00:51:32.792Z,100.00
2019-01-08T00:54:02.673Z,100.00
2019-01-08T00:56:32.856Z,100.00
2019-01-08T00:59:02.862Z,100.00
2019-01-08T01:01:33.005Z,100.00
2019-01-08T01:04:03.240Z,100.00
2019-01-08T01:06:33.713Z,100.00
2019-01-08T01:09:05.344Z,100.00
2019-01-08T01:11:35.475Z,100.00
2019-01-08T01:14:05.422Z,100.00
2019-01-08T01:16:35.588Z,100.00
2019-01-08T01:19:05.821Z,100.00
2019-01-08T01:21:36.757Z,100.00
2019-01-08T01:24:07.242Z,100.00
2019-01-08T01:26:37.532Z,100.00
2019-01-08T01:29:07.509Z,100.00
2019-01-08T01:31:37.654Z,100.00
2019-01-08T01:34:07.942Z,100.00
2019-01-08T01:36:37.911Z,100.00
2019-01-08T01:42:59.340Z,100.00
2019-01-08T01:45:29.507Z,100.00
2019-01-08T01:47:59.746Z,100.00
2019-01-08T01:54:16.805Z,100.00
2019-01-08T01:56:46.964Z,100.00
2019-01-08T01:59:16.983Z,100.00
2019-01-08T02:01:47.209Z,100.00
2019-01-08T02:04:17.609Z,100.00
2019-01-08T02:06:47.788Z,100.00
2019-01-08T02:09:17.746Z,100.00
2019-01-08T02:11:47.674Z,100.00
2019-01-08T02:14:17.814Z,100.00
2019-01-08T02:16:47.721Z,100.00
2019-01-08T02:19:17.876Z,100.00
2019-01-08T02:21:47.864Z,100.00
2019-01-08T02:24:18.248Z,100.00
2019-01-08T02:26:48.406Z,100.00
2019-01-08T02:29:18.307Z,100.00
2019-01-08T02:31:48.345Z,100.00
2019-01-08T02:34:18.524Z,100.00
2019-01-08T02:36:48.465Z,100.00
2019-01-08T02:39:18.604Z,100.00
2019-01-08T02:41:48.587Z,100.00
2019-01-08T02:44:19.187Z,100.00
2019-01-08T02:46:49.481Z,100.00
2019-01-08T02:49:19.936Z,100.00
2019-01-08T02:51:49.834Z,100.00
2019-01-08T02:54:20.100Z,100.00
2019-01-08T02:56:50.297Z,100.00
2019-01-08T02:59:25.195Z,100.00
2019-01-08T03:01:52.805Z,100.00
2019-01-08T03:04:22.710Z,100.00
2019-01-08T03:06:52.699Z,100.00
2019-01-08T03:09:22.580Z,100.00
2019-01-08T03:11:52.475Z,100.00
2019-01-08T03:14:22.950Z,100.00
2019-01-08T03:16:53.202Z,100.00
2019-01-08T03:19:23.725Z,100.00
2019-01-08T03:21:54.414Z,100.00
2019-01-08T03:24:24.389Z,100.00
2019-01-08T03:26:54.799Z,100.00
2019-01-08T03:29:24.746Z,100.00
2019-01-08T03:31:55.368Z,100.00
2019-01-08T03:34:25.328Z,100.00
2019-01-08T03:36:55.228Z,100.00
2019-01-08T03:39:25.792Z,100.00
2019-01-08T03:41:55.934Z,100.00
2019-01-08T03:44:26.113Z,100.00
2019-01-08T03:46:56.104Z,100.00
2019-01-08T03:49:26.145Z,100.00
2019-01-08T03:51:56.068Z,100.00
2019-01-08T03:54:26.128Z,100.00
2019-01-08T03:56:56.721Z,100.00
2019-01-08T03:59:26.624Z,100.00
2019-01-08T04:01:56.819Z,100.00
2019-01-08T04:04:26.739Z,100.00
2019-01-08T04:06:56.662Z,100.00
2019-01-08T04:09:26.599Z,100.00
2019-01-08T04:11:56.516Z,100.00
2019-01-08T04:14:26.425Z,100.00
2019-01-08T04:16:56.364Z,100.00
2019-01-08T04:19:26.426Z,100.00
2019-01-08T04:21:56.941Z,100.00
2019-01-08T04:24:26.874Z,100.00
2019-01-08T04:26:56.809Z,100.00
2019-01-08T04:29:26.734Z,100.00
2019-01-08T04:31:56.650Z,100.00
2019-01-08T04:34:26.583Z,100.00
2019-01-08T04:36:56.504Z,100.00
2019-01-08T04:39:26.421Z,100.00
2019-01-08T04:41:56.351Z,100.00
2019-01-08T04:44:26.422Z,100.00
2019-01-08T04:46:56.342Z,100.00
2019-01-08T04:49:26.614Z,100.00
2019-01-08T04:51:56.554Z,100.00
2019-01-08T04:54:26.475Z,100.00
2019-01-08T04:56:56.404Z,100.00
2019-01-08T04:59:26.324Z,100.00
2019-01-08T05:01:56.243Z,100.00
2019-01-08T05:04:27.120Z,100.00
2019-01-08T05:06:57.053Z,100.00
2019-01-08T05:09:26.983Z,100.00
2019-01-08T05:11:56.898Z,100.00
2019-01-08T05:14:26.804Z,100.00
2019-01-08T05:16:56.725Z,100.00
2019-01-08T05:19:27.358Z,100.00
2019-01-08T05:21:57.350Z,100.00
2019-01-08T05:24:27.264Z,100.00
2019-01-08T05:26:57.199Z,100.00
2019-01-08T05:29:27.135Z,100.00
2019-01-08T05:31:57.603Z,100.00
2019-01-08T05:34:27.538Z,100.00
2019-01-08T05:36:57.822Z,100.00
2019-01-08T05:39:27.807Z,100.00
2019-01-08T05:41:57.887Z,100.00
2019-01-08T05:44:28.508Z,100.00
2019-01-08T05:46:58.674Z,100.00
2019-01-08T05:55:48.886Z,100.00
2019-01-08T05:58:19.319Z,100.00
2019-01-08T06:00:49.238Z,100.00
2019-01-08T06:03:19.259Z,100.00
2019-01-08T06:05:49.191Z,100.00
2019-01-08T06:08:19.708Z,100.00
2019-01-08T06:10:50.470Z,100.00
2019-01-08T06:13:20.383Z,100.00
2019-01-08T06:15:50.348Z,100.00
2019-01-08T06:18:21.187Z,100.00
2019-01-08T06:20:51.291Z,100.00
2019-01-08T06:23:21.217Z,100.00
2019-01-08T06:25:51.126Z,100.00
2019-01-08T06:28:21.776Z,100.00
2019-01-08T06:30:51.726Z,100.00
2019-01-08T06:33:22.456Z,100.00
2019-01-08T06:35:52.385Z,100.00
2019-01-08T06:38:23.073Z,100.00
2019-01-08T06:40:57.575Z,100.00
2019-01-08T06:43:24.654Z,100.00
2019-01-08T06:45:55.214Z,100.00
2019-01-08T06:48:25.239Z,100.00
2019-01-08T06:50:56.344Z,100.00
2019-01-08T06:53:26.706Z,100.00
2019-01-08T06:55:57.427Z,100.00
2019-01-08T06:58:27.590Z,100.00
2019-01-08T07:00:57.584Z,100.00
2019-01-08T07:03:28.333Z,100.00
2019-01-08T07:05:58.293Z,100.00
2019-01-08T07:08:29.604Z,100.00
2019-01-08T07:10:59.627Z,100.00
2019-01-08T07:13:30.135Z,100.00
2019-01-08T07:16:00.120Z,100.00
2019-01-08T07:18:30.161Z,100.00
2019-01-08T07:21:00.327Z,100.00
2019-01-08T07:23:30.354Z,100.00
2019-01-08T07:26:00.274Z,100.00
2019-01-08T07:28:30.366Z,100.00
2019-01-08T07:31:00.713Z,100.00
2019-01-08T07:33:30.714Z,100.00
2019-01-08T07:36:00.776Z,100.00
2019-01-08T07:38:30.699Z,100.00
2019-01-08T07:41:00.613Z,100.00
2019-01-08T07:43:30.786Z,100.00
2019-01-08T07:46:01.328Z,100.00
2019-01-08T07:48:31.347Z,100.00
2019-01-08T07:51:01.616Z,100.00
2019-01-08T07:53:31.954Z,100.00
2019-01-08T07:56:01.949Z,100.00
2019-01-08T07:58:31.879Z,100.00
2019-01-08T08:01:01.783Z,100.00
2019-01-08T08:03:31.841Z,100.00
2019-01-08T08:06:02.202Z,100.00
2019-01-08T08:08:32.126Z,100.00
2019-01-08T08:11:02.267Z,100.00
2019-01-08T08:13:32.538Z,100.00
2019-01-08T08:16:02.487Z,100.00
2019-01-08T08:22:23.391Z,100.00
2019-01-08T08:24:53.779Z,100.00
2019-01-08T08:27:23.694Z,100.00
2019-01-08T08:29:53.811Z,100.00
2019-01-08T08:32:24.232Z,100.00
2019-01-08T08:34:54.834Z,100.00
2019-01-08T08:37:25.366Z,100.00
2019-01-08T08:39:55.540Z,100.00
2019-01-08T08:42:25.458Z,100.00
2019-01-08T08:44:55.384Z,100.00
2019-01-08T08:47:25.772Z,100.00
2019-01-08T08:49:55.697Z,100.00
2019-01-08T08:52:25.678Z,100.00
2019-01-08T08:54:55.592Z,100.00
2019-01-08T08:57:25.508Z,100.00
2019-01-08T08:59:56.153Z,100.00
2019-01-08T09:02:26.095Z,100.00
2019-01-08T09:04:56.048Z,100.00
2019-01-08T09:07:26.357Z,100.00
2019-01-08T09:09:56.404Z,100.00
2019-01-08T09:12:26.366Z,100.00
2019-01-08T09:18:47.482Z,100.00
2019-01-08T09:21:17.446Z,100.00
2019-01-08T09:23:47.607Z,100.00
2019-01-08T09:26:17.525Z,100.00
2019-01-08T09:28:47.456Z,100.00
2019-01-08T09:31:17.792Z,100.00
2019-01-08T09:33:47.887Z,100.00
2019-01-08T09:36:17.807Z,100.00
2019-01-08T09:38:50.201Z,100.00
2019-01-08T09:41:21.935Z,100.00
2019-01-08T09:43:51.892Z,100.00
2019-01-08T09:46:22.089Z,100.00
2019-01-08T09:48:52.066Z,100.00
2019-01-08T09:51:22.334Z,100.00
2019-01-08T09:53:52.708Z,100.00
2019-01-08T09:56:22.852Z,100.00
2019-01-08T10:18:00.853Z,100.00
2019-01-08T10:27:50.262Z,100.00
2019-01-08T10:30:20.455Z,100.00
2019-01-08T10:32:50.364Z,100.00
2019-01-08T10:35:20.446Z,100.00
2019-01-08T10:37:50.392Z,100.00
2019-01-08T10:40:20.571Z,100.00
2019-01-08T10:42:52.198Z,100.00
2019-01-08T10:45:22.393Z,100.00
2019-01-08T10:47:52.403Z,100.00
2019-01-08T10:50:22.420Z,100.00
2019-01-08T10:52:52.342Z,100.00
2019-01-08T10:55:22.554Z,100.00
2019-01-08T10:57:52.764Z,98.67
2019-01-08T11:00:22.812Z,98.53
2019-01-08T11:02:53.266Z,97.42
2019-01-08T11:05:23.535Z,97.00
2019-01-08T11:07:53.477Z,97.29
2019-01-08T11:10:23.501Z,96.96
2019-01-08T11:12:53.498Z,98.27
2019-01-08T11:15:24.253Z,96.46
2019-01-08T11:17:54.318Z,96.47
2019-01-08T11:20:24.318Z,94.74
2019-01-08T11:22:54.255Z,93.44
2019-01-08T11:26:36.810Z,91.39
2019-01-08T11:36:44.674Z,88.82
2019-01-08T11:39:14.773Z,89.78
2019-01-08T11:41:44.980Z,88.51
2019-01-08T11:48:06.793Z,87.14
2019-01-08T11:50:37.571Z,87.70
2019-01-08T11:53:09.102Z,87.14
2019-01-08T11:55:39.024Z,86.18
2019-01-08T11:58:09.284Z,87.37
2019-01-08T12:00:39.314Z,85.51
2019-01-08T12:03:09.292Z,85.23
2019-01-08T12:05:39.212Z,85.06
2019-01-08T12:08:09.144Z,83.96
2019-01-08T12:10:39.320Z,84.92
2019-01-08T12:13:09.265Z,84.74
2019-01-08T12:15:39.466Z,84.04
2019-01-08T12:18:10.344Z,82.96
2019-01-08T12:20:40.264Z,81.82
2019-01-08T12:23:10.523Z,82.17
2019-01-08T12:25:40.986Z,81.42
2019-01-08T12:28:11.332Z,81.53
2019-01-08T12:30:41.302Z,80.38
2019-01-08T12:33:11.252Z,79.94
2019-01-08T12:35:41.295Z,77.54
2019-01-08T12:38:12.253Z,81.70
2019-01-08T12:40:42.412Z,78.76
2019-01-08T12:43:12.653Z,76.86
2019-01-08T12:45:42.604Z,77.60
2019-01-08T12:48:12.517Z,76.88
2019-01-08T12:50:42.467Z,78.76
2019-01-08T12:53:12.390Z,78.82
2019-01-08T12:55:42.312Z,76.81
2019-01-08T12:58:12.224Z,78.36
2019-01-08T13:00:42.804Z,78.58
2019-01-08T13:03:13.180Z,78.82
2019-01-08T13:05:43.389Z,79.80
2019-01-08T13:08:13.341Z,79.66
2019-01-08T13:10:43.492Z,79.04
2019-01-08T13:13:13.874Z,81.10
2019-01-08T13:15:44.064Z,80.82
2019-01-08T13:18:14.003Z,82.06
2019-01-08T13:20:43.997Z,81.26
2019-01-08T13:23:13.988Z,81.28
2019-01-08T13:25:44.162Z,82.00
2019-01-08T13:28:14.666Z,83.59
2019-01-08T13:30:44.826Z,83.21
2019-01-08T13:33:15.369Z,83.66
2019-01-08T13:35:45.520Z,84.99
2019-01-08T13:38:15.675Z,85.30
2019-01-08T13:40:45.841Z,87.79
2019-01-08T13:43:15.793Z,87.57
2019-01-08T13:45:46.232Z,89.05
2019-01-08T13:48:16.216Z,90.01
2019-01-08T13:50:46.210Z,91.12
2019-01-08T13:53:16.190Z,92.89
2019-01-08T13:55:46.631Z,94.14
2019-01-08T14:02:07.639Z,95.62
2019-01-08T14:04:37.653Z,96.50
2019-01-08T14:07:07.650Z,96.34
2019-01-08T14:09:37.592Z,96.75
2019-01-08T14:12:07.602Z,97.66
2019-01-08T14:14:37.610Z,98.79
2019-01-08T14:17:07.586Z,97.00
2019-01-08T14:19:37.779Z,97.20
2019-01-08T14:22:07.866Z,96.50
2019-01-08T14:24:37.815Z,96.50
2019-01-08T14:27:11.825Z,97.44
2019-01-08T14:29:39.371Z,97.94
2019-01-08T14:32:09.301Z,98.60
2019-01-08T14:34:39.233Z,99.88
2019-01-08T14:37:09.683Z,98.53
2019-01-08T14:39:39.768Z,98.71
2019-01-08T14:42:09.768Z,100.00
2019-01-08T14:44:40.416Z,100.00
2019-01-08T14:47:10.463Z,100.00
2019-01-08T14:49:40.416Z,100.00
2019-01-08T14:52:11.354Z,100.00
2019-01-08T14:54:41.545Z,100.00
2019-01-08T14:57:11.715Z,100.00
2019-01-08T14:59:41.965Z,100.00
2019-01-08T15:02:11.979Z,100.00
2019-01-08T15:04:42.149Z,100.00
2019-01-08T15:07:12.159Z,100.00
2019-01-08T15:09:42.713Z,100.00
2019-01-08T15:12:12.947Z,100.00
2019-01-08T15:18:34.075Z,100.00
2019-01-08T15:21:04.107Z,100.00
2019-01-08T15:23:34.464Z,100.00
2019-01-08T15:26:04.403Z,100.00
2019-01-08T15:28:34.864Z,100.00
2019-01-08T15:31:04.884Z,100.00
2019-01-08T15:33:34.962Z,100.00
2019-01-08T15:36:04.954Z,100.00
2019-01-08T15:42:26.170Z,100.00
2019-01-08T15:44:56.354Z,100.00
2019-01-08T15:53:52.335Z,100.00
2019-01-08T15:56:22.267Z,100.00
2019-01-08T15:58:52.487Z,100.00
2019-01-08T16:01:22.513Z,100.00
2019-01-08T16:03:52.622Z,100.00
2019-01-08T16:06:22.556Z,100.00
2019-01-08T16:08:52.482Z,100.00
2019-01-08T16:11:22.552Z,100.00
2019-01-08T16:13:52.680Z,100.00
2019-01-08T16:16:23.112Z,100.00
2019-01-08T16:18:53.347Z,100.00
2019-01-08T16:21:23.552Z,100.00
2019-01-08T16:23:53.719Z,100.00
2019-01-08T16:26:23.744Z,100.00
2019-01-08T16:28:53.657Z,100.00
2019-01-08T16:31:25.161Z,100.00
2019-01-08T16:33:55.821Z,100.00
2019-01-08T16:36:26.688Z,100.00
2019-01-08T16:38:57.026Z,100.00
2019-01-08T16:41:27.057Z,100.00
2019-01-08T16:43:57.801Z,100.00
2019-01-08T16:46:27.710Z,100.00
2019-01-08T16:48:57.645Z,100.00
2019-01-08T16:51:27.724Z,100.00
2019-01-08T16:53:57.893Z,100.00
2019-01-08T16:56:27.830Z,100.00
2019-01-08T16:58:58.435Z,100.00
2019-01-08T17:01:28.380Z,100.00
2019-01-08T17:03:58.568Z,100.00
2019-01-08T17:06:29.085Z,100.00
2019-01-08T17:08:59.030Z,100.00
2019-01-08T17:11:28.956Z,100.00
2019-01-08T17:13:59.286Z,100.00
2019-01-08T17:16:29.917Z,100.00
2019-01-08T17:18:59.903Z,100.00
2019-01-08T17:21:29.860Z,99.79
2019-01-08T17:23:59.875Z,99.97
2019-01-08T17:26:29.948Z,99.21
2019-01-08T17:29:00.241Z,98.56
2019-01-08T17:31:31.095Z,95.87
2019-01-08T17:34:01.284Z,97.21
2019-01-08T17:36:31.604Z,98.75
2019-01-08T17:39:01.528Z,99.97
2019-01-08T17:41:31.457Z,98.38
2019-01-08T17:44:01.463Z,98.99
2019-01-08T17:46:31.893Z,99.21
2019-01-08T17:49:01.818Z,97.20
2019-01-08T17:51:31.856Z,97.12
2019-01-08T17:54:01.803Z,97.01
2019-01-08T17:56:31.709Z,99.14
2019-01-08T17:59:13.651Z,100.00
2019-01-08T18:02:09.416Z,100.00
2019-01-08T18:04:39.883Z,100.00
2019-01-08T18:07:10.654Z,100.00
2019-01-08T18:09:40.829Z,100.00
2019-01-08T18:12:10.740Z,99.57
2019-01-08T18:18:32.692Z,100.00
2019-01-08T18:21:02.780Z,100.00
2019-01-08T18:23:32.898Z,100.00
2019-01-08T18:29:54.170Z,98.38
2019-01-08T18:32:24.179Z,97.45
2019-01-08T18:34:54.283Z,96.48
2019-01-08T18:37:25.299Z,95.93
2019-01-08T18:43:46.374Z,95.98
2019-01-08T18:46:16.312Z,95.09
2019-01-08T18:48:46.590Z,95.28
2019-01-08T18:51:16.536Z,93.24
2019-01-08T18:53:46.699Z,94.43
2019-01-08T18:56:16.618Z,94.64
2019-01-08T18:58:46.615Z,94.26
2019-01-08T19:01:16.524Z,94.80
2019-01-08T19:03:46.852Z,94.53
2019-01-08T19:06:16.850Z,93.76
2019-01-08T19:09:24.186Z,94.70
2019-01-08T19:11:55.376Z,94.30
2019-01-08T19:14:29.967Z,92.93
2019-01-08T19:17:00.045Z,92.76
2019-01-08T19:19:31.346Z,93.86
2019-01-08T19:22:01.504Z,93.76
2019-01-08T19:24:32.141Z,93.41
2019-01-08T19:27:02.211Z,92.64
2019-01-08T19:29:32.137Z,90.76
2019-01-08T19:32:02.681Z,90.18
2019-01-08T19:34:32.967Z,91.23
2019-01-08T19:37:02.913Z,91.60
2019-01-08T19:39:33.621Z,92.56
2019-01-08T19:42:03.635Z,91.87
2019-01-08T19:44:33.644Z,92.21
2019-01-08T19:47:04.224Z,92.22
2019-01-08T19:49:34.170Z,92.02
2019-01-08T19:52:04.305Z,92.16
2019-01-08T19:54:34.488Z,91.49
2019-01-08T19:57:04.682Z,90.70
2019-01-08T19:59:34.932Z,91.40
2019-01-08T20:05:55.802Z,89.54
2019-01-08T20:08:26.327Z,92.24
2019-01-08T20:10:56.999Z,95.40
2019-01-08T20:13:26.939Z,94.27
2019-01-08T20:15:56.942Z,92.41
2019-01-08T20:18:26.862Z,91.72
2019-01-08T20:20:56.873Z,90.33
2019-01-08T20:23:26.793Z,90.12
2019-01-08T20:25:57.031Z,89.08
2019-01-08T20:28:27.169Z,87.86
2019-01-08T20:30:57.176Z,87.33
2019-01-08T20:33:27.115Z,87.74
2019-01-08T20:35:59.016Z,85.96
2019-01-08T20:38:28.934Z,85.92
2019-01-08T20:40:58.876Z,85.22
2019-01-08T20:43:28.808Z,86.49
2019-01-08T20:45:59.059Z,86.33
2019-01-08T20:48:29.068Z,86.08
2019-01-08T20:51:01.977Z,86.68
2019-01-08T20:53:31.916Z,87.67
2019-01-08T20:56:02.026Z,88.42
2019-01-08T20:58:32.019Z,87.39
2019-01-08T21:01:02.690Z,85.81
2019-01-08T21:03:32.868Z,87.47
2019-01-08T21:06:02.902Z,87.29
2019-01-08T21:08:32.837Z,86.37
2019-01-08T21:11:02.997Z,85.59
2019-01-08T21:13:33.227Z,85.89
2019-01-08T21:16:03.160Z,86.22
2019-01-08T21:18:33.287Z,86.25
2019-01-08T21:21:03.834Z,85.66
2019-01-08T21:23:33.881Z,87.54
2019-01-08T21:26:04.082Z,85.56
2019-01-08T21:28:34.147Z,85.91
2019-01-08T21:31:04.453Z,86.74
2019-01-08T21:33:34.442Z,86.36
2019-01-08T21:39:55.079Z,85.67
2019-01-08T21:42:24.989Z,86.31
2019-01-08T21:44:55.395Z,86.44
2019-01-08T21:47:25.318Z,86.56
2019-01-08T21:49:55.230Z,86.21
2019-01-08T21:52:25.337Z,86.56
2019-01-08T21:54:55.345Z,86.51
2019-01-08T21:57:25.275Z,86.75
2019-01-08T21:59:55.289Z,86.74
2019-01-08T22:02:25.628Z,86.74
2019-01-08T22:04:56.027Z,87.05
2019-01-08T22:07:26.085Z,87.38
2019-01-08T22:09:56.389Z,87.34
2019-01-08T22:12:26.692Z,87.99
2019-01-08T22:14:57.072Z,87.92
2019-01-08T22:17:27.044Z,87.98
2019-01-08T22:19:56.957Z,88.02
2019-01-08T22:22:26.921Z,87.12
2019-01-08T22:24:56.840Z,87.41
2019-01-08T22:27:26.739Z,87.91
2019-01-08T22:29:56.906Z,87.61
2019-01-08T22:32:27.426Z,87.08
2019-01-08T22:35:02.392Z,87.88
2019-01-08T22:37:29.524Z,87.94
2019-01-08T22:39:59.452Z,87.34
2019-01-08T22:42:29.379Z,86.76
2019-01-08T22:48:51.047Z,86.65
2019-01-08T22:51:21.249Z,85.43
2019-01-08T22:59:58.517Z,86.64
2019-01-08T23:02:28.775Z,86.22
2019-01-08T23:04:58.982Z,86.83
2019-01-08T23:07:29.053Z,87.08
2019-01-08T23:09:59.216Z,87.06
2019-01-08T23:12:29.214Z,85.14
2019-01-08T23:14:59.517Z,84.63
2019-01-08T23:17:29.427Z,84.23
2019-01-08T23:19:59.343Z,83.23
2019-01-08T23:22:29.397Z,83.58
2019-01-08T23:25:00.913Z,84.37
2019-01-08T23:27:30.913Z,83.39
2019-01-08T23:30:00.837Z,82.18
2019-01-08T23:32:30.763Z,81.67
2019-01-08T23:35:01.127Z,83.19
2019-01-08T23:37:31.403Z,84.91
2019-01-08T23:40:01.395Z,85.44
2019-01-08T23:42:31.433Z,86.07
2019-01-08T23:45:01.554Z,85.67
2019-01-08T23:47:31.808Z,86.44
2019-01-08T23:50:02.052Z,87.74
2019-01-08T23:52:49.164Z,89.48
2019-01-08T23:55:23.435Z,87.81
2019-01-08T23:57:54.311Z,87.61
